Time;durP1;ratioP1;P1;durP2;ratioP2;P2;SDS_P1;SDS_P2;PMS_P1;PMS_P2;Temp;Humidity;BMP_temperature;BMP_pressure;BME280_temperature;BME280_humidity;BME280_pressure;Samples;Min_cycle;Max_cycle;Signal;HPM_P1;HPM_P2
2024/01/30 00:01:45;;;;;;;29.48;20.13;;;;;;;;;;5054007;28;20045;-75
2024/01/30 00:04:10;;;;;;;30.35;20.05;;;36.00;55.30;;;;;;5054359;28;20037;-74
2024/01/30 00:06:36;;;;;;;25.77;17.98;;;;;;;;;;5053886;28;20069;-74
2024/01/30 00:09:02;;;;;;;25.65;18.75;;;35.80;58.70;;;;;;5053949;28;20041;-75
2024/01/30 00:11:28;;;;;;;26.40;18.63;;;;;;;;;;5054016;28;20048;-74
2024/01/30 00:13:56;;;;;;;28.45;19.52;;;;;;;;;;5052655;28;20177;-74
2024/01/30 00:16:25;;;;;;;26.73;19.05;;;35.80;56.90;;;;;;5053770;28;20045;-74
2024/01/30 00:18:54;;;;;;;27.42;20.08;;;35.70;62.00;;;;;;5053056;28;20417;-74
2024/01/30 00:21:20;;;;;;;31.95;19.42;;;36.20;63.10;;;;;;5052843;28;20041;-74
2024/01/30 00:23:46;;;;;;;30.27;20.48;;;;;;;;;;5053715;28;20497;-74
2024/01/30 00:26:12;;;;;;;35.13;20.30;;;;;;;;;;5053782;28;20080;-74
2024/01/30 00:28:38;;;;;;;30.83;18.90;;;36.30;62.10;;;;;;5051669;28;20049;-74
2024/01/30 00:31:04;;;;;;;29.42;19.15;;;;;;;;;;5054107;28;20098;-74
2024/01/30 00:33:30;;;;;;;29.80;20.33;;;;;;;;;;5053921;28;20040;-74
2024/01/30 00:35:56;;;;;;;28.25;19.73;;;35.70;65.70;;;;;;5052476;28;20076;-74
2024/01/30 00:38:22;;;;;;;31.52;18.88;;;;;;;;;;5052915;28;20068;-74
2024/01/30 00:40:48;;;;;;;26.17;18.42;;;36.20;67.10;;;;;;5053605;28;20037;-74
2024/01/30 00:43:14;;;;;;;28.25;19.40;;;;;;;;;;5052398;28;20033;-75
2024/01/30 00:45:40;;;;;;;27.67;19.45;;;35.80;68.10;;;;;;5052466;28;20459;-74
2024/01/30 00:48:05;;;;;;;33.55;21.23;;;36.50;66.20;;;;;;5052849;28;20033;-74
2024/01/30 00:50:31;;;;;;;29.20;20.88;;;;;;;;;;5053503;28;20040;-74
2024/01/30 00:52:57;;;;;;;31.13;20.52;;;;;;;;;;5053242;28;20044;-74
2024/01/30 00:55:23;;;;;;;27.40;18.25;;;;;;;;;;5053242;28;20041;-74
2024/01/30 00:57:49;;;;;;;31.73;21.63;;;;;;;;;;5051870;28;20048;-74
2024/01/30 01:00:17;;;;;;;30.55;19.98;;;;;;;;;;5052511;28;20039;-74
2024/01/30 01:02:43;;;;;;;26.33;19.00;;;;;;;;;;5052844;28;20091;-74
2024/01/30 01:05:09;;;;;;;27.40;19.83;;;;;;;;;;5052255;28;20041;-74
2024/01/30 01:07:35;;;;;;;27.85;19.10;;;36.40;69.90;;;;;;5052423;28;20500;-74
2024/01/30 01:10:01;;;;;;;30.48;20.15;;;35.60;67.50;;;;;;5052629;28;20037;-74
2024/01/30 01:12:27;;;;;;;29.13;19.30;;;;;;;;;;5052826;28;20037;-74
2024/01/30 01:14:52;;;;;;;28.20;19.27;;;36.20;70.00;;;;;;5052734;28;20041;-74
2024/01/30 01:17:18;;;;;;;29.95;19.52;;;;;;;;;;5052276;28;20411;-74
2024/01/30 01:19:44;;;;;;;30.27;19.80;;;;;;;;;;5052712;28;20037;-74
2024/01/30 01:22:11;;;;;;;33.63;21.02;;;;;;;;;;5052889;28;20092;-74
2024/01/30 01:24:37;;;;;;;26.98;18.35;;;;;;;;;;5052700;28;20043;-74
2024/01/30 01:27:03;;;;;;;30.80;20.55;;;;;;;;;;5050734;28;20041;-74
2024/01/30 01:29:29;;;;;;;28.67;19.00;;;;;;;;;;5052206;28;20404;-74
2024/01/30 01:31:55;;;;;;;29.55;19.75;;;35.80;72.30;;;;;;5052804;28;20044;-74
2024/01/30 01:34:21;;;;;;;29.02;19.13;;;36.30;75.30;;;;;;5052515;28;20510;-74
2024/01/30 01:36:47;;;;;;;30.33;20.10;;;;;;;;;;5051826;28;20068;-74
2024/01/30 01:39:13;;;;;;;30.00;19.75;;;;;;;;;;5052053;28;20074;-74
2024/01/30 01:41:39;;;;;;;28.13;19.35;;;;;;;;;;5052268;28;20416;-74
2024/01/30 01:44:05;;;;;;;27.83;19.50;;;;;;;;;;5052203;28;20045;-74
2024/01/30 01:46:33;;;;;;;29.95;20.25;;;35.70;73.30;;;;;;5052241;28;20094;-74
2024/01/30 01:49:00;;;;;;;26.65;18.73;;;;;;;;;;5051183;28;20032;-74
2024/01/30 01:51:28;;;;;;;30.48;18.20;;;36.00;72.10;;;;;;5052269;28;20116;-74
2024/01/30 01:53:54;;;;;;;32.70;20.25;;;;;;;;;;5051637;28;20037;-74
2024/01/30 01:56:20;;;;;;;30.23;19.13;;;;;;;;;;5051932;28;20044;-74
2024/01/30 01:58:47;;;;;;;26.38;18.45;;;;;;;;;;5051395;28;20037;-74
2024/01/30 02:01:14;;;;;;;26.33;18.73;;;35.80;74.60;;;;;;5052218;28;20040;-74
2024/01/30 02:03:40;;;;;;;31.60;18.92;;;;;;;;;;5051963;28;20037;-74
2024/01/30 02:06:06;;;;;;;27.45;19.50;;;;;;;;;;5052065;28;20048;-74
2024/01/30 02:08:33;;;;;;;31.45;19.33;;;;;;;;;;5051006;28;20394;-74
2024/01/30 02:10:59;;;;;;;27.08;18.73;;;36.40;76.20;;;;;;5051700;28;20041;-74
2024/01/30 02:13:25;;;;;;;26.92;18.50;;;35.90;75.00;;;;;;5051917;28;20044;-74
2024/01/30 02:15:53;;;;;;;32.90;19.60;;;35.40;72.00;;;;;;5049905;28;20049;-74
2024/01/30 02:18:23;;;;;;;30.73;20.27;;;;;;;;;;5049533;28;20162;-75
2024/01/30 02:20:49;;;;;;;29.35;18.73;;;;;;;;;;5051798;28;20108;-76
2024/01/30 02:23:16;;;;;;;28.67;19.40;;;36.40;75.90;;;;;;5051613;28;20044;-74
2024/01/30 02:25:45;;;;;;;28.40;19.02;;;35.90;77.70;;;;;;5051516;28;20037;-74
2024/01/30 02:28:12;;;;;;;27.95;19.05;;;;;;;;;;5050543;28;20037;-74
2024/01/30 02:30:38;;;;;;;27.75;19.55;;;36.50;77.80;;;;;;5051799;28;20037;-74
2024/01/30 02:33:05;;;;;;;29.27;19.67;;;;;;;;;;5047741;28;20943;-74
2024/01/30 02:35:30;;;;;;;29.23;19.42;;;36.40;79.10;;;;;;5051173;28;20044;-74
2024/01/30 02:37:56;;;;;;;29.02;19.00;;;;;;;;;;5049987;28;20029;-74
2024/01/30 02:40:22;;;;;;;28.90;19.63;;;36.00;76.00;;;;;;5051207;28;20037;-74
2024/01/30 02:42:48;;;;;;;30.35;19.60;;;;;;;;;;5051236;28;20029;-74
2024/01/30 02:45:14;;;;;;;29.48;18.98;;;35.70;77.60;;;;;;5051440;28;20087;-74
2024/01/30 02:47:40;;;;;;;28.05;18.98;;;;;;;;;;5050746;28;20029;-74
2024/01/30 02:50:07;;;;;;;30.40;19.92;;;;;;;;;;5050709;28;20056;-74
2024/01/30 02:52:33;;;;;;;27.98;18.00;;;;;;;;;;5050873;28;20037;-74
2024/01/30 02:54:59;;;;;;;30.08;19.85;;;;;;;;;;5050867;28;20045;-74
2024/01/30 02:57:25;;;;;;;30.33;19.33;;;;;;;;;;5050369;28;20102;-74
2024/01/30 02:59:51;;;;;;;30.95;20.92;;;;;;;;;;5050662;28;20029;-74
2024/01/30 03:02:17;;;;;;;27.00;17.65;;;35.80;74.60;;;;;;5049687;28;20056;-74
2024/01/30 03:04:43;;;;;;;27.45;19.60;;;;;;;;;;5050891;28;20036;-74
2024/01/30 03:07:09;;;;;;;28.27;18.65;;;;;;;;;;5050002;28;20112;-74
2024/01/30 03:09:35;;;;;;;31.25;18.58;;;;;;;;;;5050749;28;20041;-74
2024/01/30 03:12:01;;;;;;;26.58;18.48;;;;;;;;;;5051122;28;20036;-76
2024/01/30 03:14:27;;;;;;;31.30;19.98;;;;;;;;;;5051038;28;20037;-74
2024/01/30 03:16:53;;;;;;;28.00;19.88;;;36.50;76.40;;;;;;5050381;28;20039;-74
2024/01/30 03:19:18;;;;;;;32.45;18.48;;;35.90;75.60;;;;;;5049568;28;20064;-74
2024/01/30 03:21:44;;;;;;;29.40;18.45;;;35.80;77.50;;;;;;5051029;28;20069;-74
2024/01/30 03:24:10;;;;;;;25.42;18.25;;;;;;;;;;5051105;28;20025;-74
2024/01/30 03:26:36;;;;;;;25.48;18.30;;;;;;;;;;5052286;28;20052;-74
2024/01/30 03:29:02;;;;;;;31.00;20.17;;;;;;;;;;5053881;28;20496;-74
2024/01/30 03:31:28;;;;;;;29.65;18.95;;;;;;;;;;5054629;28;20047;-74
2024/01/30 03:33:54;;;;;;;29.70;18.48;;;36.40;75.90;;;;;;5054653;28;20044;-74
2024/01/30 03:36:19;;;;;;;27.05;18.50;;;36.20;73.50;;;;;;5054286;28;20485;-75
2024/01/30 03:38:46;;;;;;;27.77;18.48;;;;;;;;;;5053600;28;20040;-74
2024/01/30 03:41:11;;;;;;;26.50;18.63;;;35.90;74.70;;;;;;5054635;28;20033;-74
2024/01/30 03:43:37;;;;;;;28.50;18.80;;;36.50;73.80;;;;;;5054402;28;20055;-75
2024/01/30 03:46:03;;;;;;;26.58;18.30;;;;;;;;;;5054671;28;20111;-75
2024/01/30 03:48:29;;;;;;;26.45;18.60;;;36.20;71.80;;;;;;5053355;28;20040;-75
2024/01/30 03:50:55;;;;;;;25.48;18.38;;;;;;;;;;5054028;28;20037;-74
2024/01/30 03:53:21;;;;;;;30.10;18.58;;;;;;;;;;5054410;28;20040;-74
2024/01/30 03:55:47;;;;;;;29.38;18.63;;;;;;;;;;5054091;28;20043;-75
2024/01/30 03:58:13;;;;;;;24.33;18.20;;;;;;;;;;5053039;28;20112;-74
2024/01/30 04:00:39;;;;;;;27.58;18.75;;;36.60;79.80;;;;;;5053985;28;20518;-74
2024/01/30 04:03:04;;;;;;;33.92;19.90;;;35.80;77.90;;;;;;5052967;28;20120;-74
2024/01/30 04:05:31;;;;;;;27.30;17.65;;;;;;;;;;5054221;28;20040;-74
2024/01/30 04:07:57;;;;;;;24.98;16.95;;;;;;;;;;5053668;28;20041;-74
2024/01/30 04:10:24;;;;;;;29.75;18.85;;;;;;;;;;5054164;28;20167;-74
2024/01/30 04:12:51;;;;;;;29.05;18.73;;;;;;;;;;5054076;28;20044;-74
2024/01/30 04:15:17;;;;;;;22.52;16.70;;;35.90;75.60;;;;;;5054180;28;20106;-74
2024/01/30 04:17:43;;;;;;;28.83;17.58;;;36.10;75.50;;;;;;5053271;28;20488;-74
2024/01/30 04:20:15;;;;;;;25.52;16.98;;;35.90;71.90;;;;;;5053757;28;20041;-74
2024/01/30 04:22:42;;;;;;;25.10;16.90;;;36.20;72.90;;;;;;5054136;28;20037;-74
2024/01/30 04:25:08;;;;;;;28.17;17.55;;;;;;;;;;5053975;28;20041;-74
2024/01/30 04:27:34;;;;;;;27.42;17.60;;;35.90;77.70;;;;;;5053177;28;20068;-74
2024/01/30 04:29:59;;;;;;;26.65;18.02;;;35.80;77.10;;;;;;5053636;28;20134;-74
2024/01/30 04:32:25;;;;;;;24.08;16.30;;;;;;;;;;5053730;28;20037;-74
2024/01/30 04:34:51;;;;;;;25.80;16.17;;;;;;;;;;5053526;28;20497;-74
2024/01/30 04:37:17;;;;;;;27.02;17.08;;;;;;;;;;5053036;28;20162;-74
2024/01/30 04:39:43;;;;;;;22.50;16.48;;;;;;;;;;5051986;28;20521;-74
2024/01/30 04:42:09;;;;;;;23.65;16.25;;;;;;;;;;5053287;28;20040;-74
2024/01/30 04:44:35;;;;;;;25.00;16.60;;;36.30;75.70;;;;;;5053163;28;20033;-74
2024/01/30 04:47:01;;;;;;;24.30;16.98;;;36.50;73.80;;;;;;5052328;28;20378;-75
2024/01/30 04:49:27;;;;;;;22.00;16.25;;;;;;;;;;5052622;28;20166;-74
2024/01/30 04:51:53;;;;;;;26.65;16.33;;;;;;;;;;5053028;28;20039;-74
2024/01/30 04:54:19;;;;;;;21.15;15.77;;;36.30;71.40;;;;;;5052947;28;20108;-74
2024/01/30 04:56:45;;;;;;;22.80;16.05;;;;;;;;;;5051908;28;20527;-74
2024/01/30 04:59:10;;;;;;;23.05;15.73;;;36.50;70.60;;;;;;5052445;28;20115;-74
2024/01/30 05:01:36;;;;;;;22.80;15.30;;;;;;;;;;5052700;28;20040;-74
2024/01/30 05:04:03;;;;;;;21.58;15.35;;;;;;;;;;5052807;28;20481;-74
2024/01/30 05:06:29;;;;;;;20.70;14.93;;;36.30;68.40;;;;;;5052701;28;20048;-74
2024/01/30 05:08:55;;;;;;;24.10;14.95;;;36.30;69.20;;;;;;5052024;28;20090;-74
2024/01/30 05:11:21;;;;;;;22.20;14.90;;;;;;;;;;5052671;28;20033;-74
2024/01/30 05:13:47;;;;;;;22.70;14.57;;;36.10;69.10;;;;;;5052557;28;20063;-74
2024/01/30 05:16:13;;;;;;;21.55;14.13;;;36.60;65.60;;;;;;5051125;28;20037;-74
2024/01/30 05:18:39;;;;;;;21.17;15.55;;;;;;;;;;5050170;28;20424;-74
2024/01/30 05:21:05;;;;;;;22.73;15.88;;;35.70;65.60;;;;;;5052648;28;20095;-74
2024/01/30 05:23:31;;;;;;;22.83;13.77;;;;;;;;;;5052326;28;20036;-74
2024/01/30 05:25:58;;;;;;;21.13;13.70;;;;;;;;;;5052398;28;20072;-74
2024/01/30 05:28:24;;;;;;;22.50;14.40;;;36.00;62.90;;;;;;5051383;28;20693;-74
2024/01/30 05:30:50;;;;;;;21.55;14.73;;;;;;;;;;5051982;28;20036;-74
2024/01/30 05:33:16;;;;;;;21.05;14.23;;;;;;;;;;5052299;28;20068;-74
2024/01/30 05:35:42;;;;;;;25.02;13.93;;;;;;;;;;5052219;28;20064;-74
2024/01/30 05:38:08;;;;;;;22.00;13.30;;;;;;;;;;5051140;28;20045;-74
2024/01/30 05:40:34;;;;;;;20.38;14.88;;;;;;;;;;5049344;28;20082;-74
2024/01/30 05:43:01;;;;;;;20.00;13.27;;;;;;;;;;5051950;28;20067;-74
2024/01/30 05:45:27;;;;;;;22.65;15.30;;;36.10;62.40;;;;;;5051040;28;20033;-74
2024/01/30 05:47:53;;;;;;;19.90;13.35;;;36.50;61.60;;;;;;5051185;28;20037;-74
2024/01/30 05:50:19;;;;;;;21.50;14.52;;;35.90;56.60;;;;;;5051085;28;20037;-74
2024/01/30 05:52:45;;;;;;;23.20;14.23;;;36.20;60.20;;;;;;5051964;28;20086;-74
2024/01/30 05:55:11;;;;;;;23.80;15.45;;;;;;;;;;5051693;28;20037;-74
2024/01/30 05:57:37;;;;;;;20.60;14.45;;;35.90;59.50;;;;;;5050912;28;20480;-74
2024/01/30 06:00:05;;;;;;;19.20;14.52;;;36.30;54.60;;;;;;5051385;28;20059;-74
2024/01/30 06:02:31;;;;;;;23.75;15.50;;;;;;;;;;5051711;28;20040;-74
2024/01/30 06:04:56;;;;;;;24.60;16.13;;;35.90;57.30;;;;;;5051755;28;20032;-74
2024/01/30 06:07:22;;;;;;;22.55;15.77;;;36.70;58.60;;;;;;5051019;28;20051;-74
2024/01/30 06:09:48;;;;;;;25.90;15.43;;;;;;;;;;5051259;28;20040;-74
2024/01/30 06:12:14;;;;;;;23.52;15.43;;;;;;;;;;5048809;28;20059;-74
2024/01/30 06:14:42;;;;;;;21.33;15.50;;;;;;;;;;5051295;28;20480;-74
2024/01/30 06:17:08;;;;;;;24.30;14.82;;;;;;;;;;5050945;28;20422;-74
2024/01/30 06:19:34;;;;;;;23.45;15.43;;;;;;;;;;5051473;28;20033;-74
2024/01/30 06:22:00;;;;;;;29.73;14.70;;;;;;;;;;5051585;28;20481;-74
2024/01/30 06:24:27;;;;;;;22.13;15.07;;;;;;;;;;5051345;28;20033;-75
2024/01/30 06:26:53;;;;;;;24.67;15.05;;;;;;;;;;5050974;28;20036;-74
2024/01/30 06:29:20;;;;;;;20.15;15.10;;;;;;;;;;5051141;28;20044;-74
2024/01/30 06:31:46;;;;;;;23.05;14.48;;;;;;;;;;5051423;28;20514;-75
2024/01/30 06:34:12;;;;;;;21.10;14.98;;;;;;;;;;5051655;28;20128;-74
2024/01/30 06:36:39;;;;;;;23.60;14.93;;;;;;;;;;5051548;28;20041;-75
2024/01/30 06:39:05;;;;;;;23.13;14.38;;;;;;;;;;5051220;28;20041;-72
2024/01/30 06:41:31;;;;;;;23.35;15.20;;;;;;;;;;5051288;28;20493;-73
2024/01/30 06:43:57;;;;;;;22.58;15.32;;;36.50;46.40;;;;;;5051315;28;20050;-72
2024/01/30 06:46:23;;;;;;;21.25;14.63;;;;;;;;;;5051542;28;20507;-73
2024/01/30 06:48:48;;;;;;;20.40;13.45;;;36.60;48.90;;;;;;5050424;28;20041;-72
2024/01/30 06:51:14;;;;;;;21.75;13.93;;;;;;;;;;5050136;28;20048;-72
2024/01/30 06:53:40;;;;;;;24.98;15.70;;;36.30;47.40;;;;;;5051326;28;20063;-73
2024/01/30 06:56:06;;;;;;;23.63;15.18;;;36.10;49.30;;;;;;5051397;28;20045;-73
2024/01/30 06:58:32;;;;;;;23.50;15.25;;;;;;;;;;5050289;28;20492;-73
2024/01/30 07:00:58;;;;;;;22.15;14.32;;;36.40;48.90;;;;;;5051846;28;20041;-73
2024/01/30 07:03:24;;;;;;;20.85;13.15;;;;;;;;;;5055338;28;20060;-72
2024/01/30 07:05:50;;;;;;;23.65;13.68;;;36.60;49.20;;;;;;5055245;28;20114;-73
2024/01/30 07:08:17;;;;;;;20.63;13.95;;;;;;;;;;5054458;28;20500;-72
2024/01/30 07:10:43;;;;;;;19.17;13.90;;;36.20;48.30;;;;;;5054650;28;20437;-72
2024/01/30 07:13:10;;;;;;;18.35;13.13;;;36.30;47.50;;;;;;5054570;28;20519;-72
2024/01/30 07:15:36;;;;;;;22.33;13.57;;;36.70;50.30;;;;;;5051869;28;20037;-73
2024/01/30 07:18:05;;;;;;;19.90;13.68;;;36.20;44.50;;;;;;5053359;28;20040;-72
2024/01/30 07:20:31;;;;;;;17.65;12.52;;;36.70;47.50;;;;;;5053554;28;20041;-73
2024/01/30 07:23:01;;;;;;;24.02;14.43;;;;;;;;;;5055124;28;20040;-73
2024/01/30 07:25:27;;;;;;;18.80;13.45;;;;;;;;;;5043646;28;20061;-71
2024/01/30 07:27:56;;;;;;;19.70;13.45;;;36.30;39.70;;;;;;5047142;28;20072;-72
2024/01/30 07:30:23;;;;;;;20.15;13.30;;;;;;;;;;5051923;28;20044;-73
2024/01/30 07:32:49;;;;;;;20.48;12.68;;;;;;;;;;5051907;28;20148;-71
2024/01/30 07:35:15;;;;;;;21.02;13.45;;;;;;;;;;5043001;28;20162;-72
2024/01/30 07:37:41;;;;;;;17.10;13.10;;;;;;;;;;5049720;28;20148;-73
2024/01/30 07:40:07;;;;;;;22.73;13.25;;;;;;;;;;5048395;28;20727;-73
2024/01/30 07:42:33;;;;;;;18.55;12.55;;;;;;;;;;5043542;28;20098;-72
2024/01/30 07:45:00;;;;;;;19.38;13.10;;;36.20;40.70;;;;;;5051594;28;20044;-72
2024/01/30 07:47:26;;;;;;;18.40;12.75;;;36.30;43.40;;;;;;5046722;28;20029;-73
2024/01/30 07:49:52;;;;;;;20.10;13.32;;;;;;;;;;5043802;28;20030;-73
2024/01/30 07:52:18;;;;;;;18.17;13.00;;;;;;;;;;5037117;28;20041;-72
2024/01/30 07:54:50;;;;;;;18.40;12.70;;;36.60;44.10;;;;;;5043445;28;20631;-72
2024/01/30 07:57:16;;;;;;;16.52;12.52;;;36.70;45.60;;;;;;5043274;28;20042;-73
2024/01/30 07:59:45;;;;;;;19.75;12.65;;;36.10;42.40;;;;;;5046678;28;20045;-73
2024/01/30 08:02:14;;;;;;;17.90;12.80;;;36.30;47.30;;;;;;5039674;28;20041;-71
2024/01/30 08:04:40;;;;;;;21.77;13.07;;;;;;;;;;5045260;28;20412;-72
2024/01/30 08:07:06;;;;;;;21.60;13.07;;;;;;;;;;5040027;28;20041;-72
2024/01/30 08:09:32;;;;;;;26.10;13.25;;;36.20;47.00;;;;;;5038143;28;20120;-73
2024/01/30 08:11:58;;;;;;;18.52;13.38;;;;;;;;;;5043053;28;20171;-73
2024/01/30 08:14:25;;;;;;;22.38;12.88;;;;;;;;;;5039821;28;20524;-73
2024/01/30 08:16:51;;;;;;;24.70;13.40;;;;;;;;;;5037783;28;20029;-73
2024/01/30 08:19:18;;;;;;;23.45;12.82;;;;;;;;;;5041637;28;20044;-73
2024/01/30 08:21:44;;;;;;;21.60;13.52;;;;;;;;;;5043572;28;20047;-73
2024/01/30 08:24:10;;;;;;;21.23;13.00;;;;;;;;;;5045120;28;20041;-73
2024/01/30 08:26:36;;;;;;;17.15;11.85;;;;;;;;;;5043009;28;20034;-72
2024/01/30 08:29:02;;;;;;;16.33;12.07;;;;;;;;;;5048943;28;20047;-72
2024/01/30 08:31:28;;;;;;;18.80;11.88;;;36.30;47.70;;;;;;5040797;28;20041;-73
2024/01/30 08:33:54;;;;;;;17.95;11.60;;;;;;;;;;5044109;28;20524;-72
2024/01/30 08:36:20;;;;;;;19.50;12.52;;;;;;;;;;5040747;28;20121;-72
2024/01/30 08:38:46;;;;;;;20.02;12.50;;;;;;;;;;5044858;28;20051;-73
2024/01/30 08:41:12;;;;;;;20.10;13.43;;;;;;;;;;5047233;28;20069;-74
2024/01/30 08:43:38;;;;;;;16.90;12.18;;;;;;;;;;5040531;28;20435;-73
2024/01/30 08:46:04;;;;;;;19.90;12.95;;;;;;;;;;5049327;28;20045;-74
2024/01/30 08:48:30;;;;;;;19.23;12.38;;;;;;;;;;5045285;28;20041;-74
2024/01/30 08:50:56;;;;;;;17.02;11.68;;;;;;;;;;5046420;28;20048;-74
2024/01/30 08:53:22;;;;;;;19.80;13.18;;;36.40;44.60;;;;;;5037032;28;20042;-74
2024/01/30 08:55:48;;;;;;;20.67;12.85;;;;;;;;;;5040245;28;20555;-71
2024/01/30 08:58:15;;;;;;;19.45;12.55;;;;;;;;;;5040144;28;20045;-72
2024/01/30 09:00:41;;;;;;;17.63;12.50;;;;;;;;;;5038016;28;20390;-71
2024/01/30 09:03:06;;;;;;;20.00;12.18;;;36.70;43.80;;;;;;5046445;28;20041;-72
2024/01/30 09:05:32;;;;;;;23.42;12.20;;;;;;;;;;5036422;28;20079;-70
2024/01/30 09:07:58;;;;;;;17.40;12.35;;;;;;;;;;5044618;28;20049;-71
2024/01/30 09:10:24;;;;;;;17.50;11.98;;;36.60;43.90;;;;;;5049727;28;20126;-71
2024/01/30 09:12:50;;;;;;;26.38;14.13;;;;;;;;;;5049960;28;20040;-71
2024/01/30 09:15:16;;;;;;;20.77;14.10;;;;;;;;;;5049922;28;20094;-71
2024/01/30 09:17:42;;;;;;;19.88;13.55;;;;;;;;;;5038151;28;20048;-71
2024/01/30 09:20:09;;;;;;;21.27;13.32;;;;;;;;;;5045042;28;20068;-72
2024/01/30 09:22:35;;;;;;;24.67;13.73;;;;;;;;;;5038658;28;20488;-72
2024/01/30 09:25:00;;;;;;;21.48;12.50;;;36.60;40.30;;;;;;5042920;28;20076;-72
2024/01/30 09:27:26;;;;;;;20.90;13.73;;;36.10;48.20;;;;;;5037449;28;20049;-71
2024/01/30 09:29:52;;;;;;;21.10;13.57;;;;;;;;;;5036734;28;20040;-72
2024/01/30 09:32:18;;;;;;;19.15;13.23;;;36.20;51.10;;;;;;5037662;28;20546;-72
2024/01/30 09:34:44;;;;;;;19.40;13.45;;;36.20;51.30;;;;;;5046637;28;20094;-72
2024/01/30 09:37:09;;;;;;;20.65;13.75;;;36.50;55.50;;;;;;5049250;28;20044;-71
2024/01/30 09:39:35;;;;;;;17.92;12.73;;;35.90;58.80;;;;;;5049378;28;20041;-71
2024/01/30 09:42:02;;;;;;;20.33;12.40;;;;;;;;;;5049614;28;20051;-72
2024/01/30 09:44:30;;;;;;;21.10;14.00;;;;;;;;;;5049476;28;20400;-72
2024/01/30 09:47:03;;;;;;;21.30;13.05;;;;;;;;;;5048607;28;20587;-72
2024/01/30 09:49:30;;;;;;;25.38;14.25;;;;;;;;;;5048839;28;20048;-72
2024/01/30 09:51:56;;;;;;;17.63;13.20;;;;;;;;;;5047862;28;20052;-72
2024/01/30 09:54:23;;;;;;;24.73;13.98;;;;;;;;;;5047427;28;20041;-72
2024/01/30 09:56:49;;;;;;;20.67;13.32;;;;;;;;;;5048071;28;20583;-72
2024/01/30 09:59:15;;;;;;;23.08;14.65;;;;;;;;;;5049011;28;20055;-72
2024/01/30 10:01:41;;;;;;;19.35;13.80;;;;;;;;;;5047349;28;20033;-72
2024/01/30 10:04:07;;;;;;;22.85;13.40;;;;;;;;;;5044991;28;20099;-73
2024/01/30 10:06:34;;;;;;;20.73;12.55;;;;;;;;;;5041800;28;20563;-72
2024/01/30 10:08:59;;;;;;;20.83;13.00;;;36.00;58.50;;;;;;5034897;28;20477;-72
2024/01/30 10:11:25;;;;;;;20.65;12.95;;;36.10;56.20;;;;;;5038232;28;20098;-73
2024/01/30 10:13:50;;;;;;;20.42;12.95;;;36.60;57.30;;;;;;5044266;28;20369;-72
2024/01/30 10:16:16;;;;;;;27.42;14.10;;;36.80;60.90;;;;;;5038685;28;20041;-72
2024/01/30 10:18:42;;;;;;;21.80;13.07;;;36.70;62.20;;;;;;5041201;28;20095;-72
2024/01/30 10:21:09;;;;;;;20.70;13.40;;;;;;;;;;5035617;28;20045;-72
2024/01/30 10:23:36;;;;;;;18.75;12.23;;;36.10;66.40;;;;;;5042059;28;20049;-73
2024/01/30 10:26:03;;;;;;;23.40;13.13;;;;;;;;;;5035624;28;20041;-72
2024/01/30 10:28:30;;;;;;;20.45;12.50;;;;;;;;;;5037554;28;20419;-73
2024/01/30 10:31:05;;;;;;;23.65;12.30;;;36.10;36.50;;;;;;5044937;28;20148;-72
2024/01/30 10:33:31;;;;;;;23.98;11.88;;;;;;;;;;5040168;28;20068;-72
2024/01/30 10:36:01;;;;;;;16.38;11.07;;;36.30;24.40;;;;;;5047298;28;20041;-72
2024/01/30 10:38:29;;;;;;;24.95;11.90;;;36.40;20.20;;;;;;5047503;28;20532;-72
2024/01/30 10:41:02;;;;;;;22.63;11.13;;;36.10;19.20;;;;;;5048148;28;20041;-73
2024/01/30 10:43:31;;;;;;;18.30;10.27;;;36.50;14.10;;;;;;5048360;28;20116;-73
2024/01/30 10:45:59;;;;;;;20.77;10.57;;;36.30;16.80;;;;;;5048567;28;20063;-72
2024/01/30 10:48:29;;;;;;;20.73;11.05;;;36.20;17.20;;;;;;5047763;28;20055;-73
2024/01/30 10:50:57;;;;;;;29.23;12.30;;;36.40;14.10;;;;;;5048346;28;20049;-72
2024/01/30 10:53:23;;;;;;;21.48;9.48;;;36.50;13.90;;;;;;5047817;28;20045;-72
2024/01/30 10:55:51;;;;;;;21.50;9.95;;;;;;;;;;5048085;28;20043;-72
2024/01/30 10:58:17;;;;;;;23.02;9.88;;;;;;;;;;5040512;28;20488;-72
2024/01/30 11:00:44;;;;;;;18.90;8.43;;;;;;;;;;5048284;28;20072;-72
2024/01/30 11:03:10;;;;;;;19.52;9.07;;;;;;;;;;5048614;28;20033;-72
2024/01/30 11:05:36;;;;;;;20.08;8.80;;;;;;;;;;5049273;28;20405;-72
2024/01/30 11:08:14;;;;;;;12.90;8.00;;;36.20;11.80;;;;;;5049615;28;20054;-73
2024/01/30 11:10:49;;;;;;;16.13;7.55;;;36.50;10.00;;;;;;5050648;28;20056;-72
2024/01/30 11:13:15;;;;;;;13.73;6.97;;;;;;;;;;5051123;28;20041;-71
2024/01/30 11:15:41;;;;;;;17.17;7.10;;;;;;;;;;5049815;28;20103;-72
2024/01/30 11:18:07;;;;;;;9.65;4.85;;;;;;;;;;5047412;28;20041;-72
2024/01/30 11:20:35;;;;;;;14.70;5.75;;;;;;;;;;5048099;28;20045;-73
2024/01/30 11:23:05;;;;;;;13.45;5.13;;;36.40;3.50;;;;;;5047708;28;20045;-73
2024/01/30 11:25:32;;;;;;;14.55;4.57;;;36.40;1.00;;;;;;5047470;28;20029;-73
2024/01/30 11:27:58;;;;;;;15.02;4.22;;;;;;;;;;5047945;28;20041;-74
2024/01/30 11:30:33;;;;;;;7.25;2.83;;;36.30;1.00;;;;;;5048340;28;20033;-73
2024/01/30 11:32:59;;;;;;;8.63;2.28;;;;;;;;;;5045858;28;20489;-72
2024/01/30 11:35:25;;;;;;;11.68;2.00;;;;;;;;;;5040896;28;20053;-73
2024/01/30 11:37:52;;;;;;;4.80;2.00;;;;;;;;;;5035365;28;20120;-73
2024/01/30 11:40:18;;;;;;;6.18;1.98;;;36.30;1.50;;;;;;5036621;28;20037;-74
2024/01/30 11:42:45;;;;;;;6.95;2.00;;;36.30;2.40;;;;;;5042396;28;20037;-75
2024/01/30 11:45:11;;;;;;;7.32;2.05;;;;;;;;;;5035126;28;20460;-73
2024/01/30 11:47:39;;;;;;;7.47;2.22;;;36.20;4.10;;;;;;5039596;28;20037;-73
2024/01/30 11:50:06;;;;;;;8.02;2.35;;;36.10;5.80;;;;;;5047745;28;20500;-73
2024/01/30 11:52:33;;;;;;;8.13;2.55;;;;;;;;;;5036970;28;20034;-72
2024/01/30 11:55:00;;;;;;;9.85;2.22;;;;;;;;;;5041066;28;20111;-73
2024/01/30 11:57:28;;;;;;;4.72;2.10;;;;;;;;;;5041289;28;20405;-73
2024/01/30 11:59:54;;;;;;;4.85;1.67;;;;;;;;;;5040239;28;20344;-72
2024/01/30 12:02:20;;;;;;;4.22;2.03;;;;;;;;;;5039730;28;20112;-73
2024/01/30 12:04:46;;;;;;;7.45;1.88;;;;;;;;;;5039578;28;20032;-73
2024/01/30 12:07:15;;;;;;;8.27;2.38;;;36.00;11.30;;;;;;5037747;28;20405;-73
2024/01/30 12:09:41;;;;;;;5.18;1.65;;;;;;;;;;5044872;28;20094;-73
2024/01/30 12:12:11;;;;;;;7.32;1.70;;;;;;;;;;5046675;28;20037;-72
2024/01/30 12:14:38;;;;;;;3.78;1.70;;;;;;;;;;5044779;28;20568;-73
2024/01/30 12:17:04;;;;;;;14.07;2.40;;;;;;;;;;5045124;28;20610;-73
2024/01/30 12:19:29;;;;;;;4.97;1.55;;;36.30;6.00;;;;;;5043219;28;20056;-73
2024/01/30 12:21:58;;;;;;;11.85;2.53;;;36.20;3.70;;;;;;5042936;28;20033;-72
2024/01/30 12:24:24;;;;;;;3.15;1.60;;;;;;;;;;5042795;28;20043;-73
2024/01/30 12:26:51;;;;;;;8.23;2.33;;;;;;;;;;5044158;28;20043;-73
2024/01/30 12:29:17;;;;;;;4.78;1.70;;;;;;;;;;5046968;28;20033;-72
2024/01/30 12:31:44;;;;;;;4.38;1.83;;;36.30;2.30;;;;;;5045979;28;20413;-72
2024/01/30 12:34:10;;;;;;;9.32;1.90;;;;;;;;;;5044831;28;20041;-73
2024/01/30 12:36:36;;;;;;;7.28;1.60;;;;;;;;;;5034350;28;20519;-72
2024/01/30 12:39:02;;;;;;;5.53;1.80;;;;;;;;;;5038743;28;20041;-73
2024/01/30 12:41:29;;;;;;;4.10;1.67;;;;;;;;;;5033784;28;20049;-73
2024/01/30 12:43:55;;;;;;;3.97;1.58;;;;;;;;;;5042856;28;20048;-73
2024/01/30 12:46:21;;;;;;;6.50;1.92;;;;;;;;;;5044278;28;20401;-73
2024/01/30 12:48:47;;;;;;;3.30;1.40;;;;;;;;;;5040288;28;20048;-73
2024/01/30 12:51:13;;;;;;;7.88;2.00;;;;;;;;;;5046119;28;20041;-73
2024/01/30 12:53:39;;;;;;;4.07;1.80;;;;;;;;;;5050508;28;20049;-73
2024/01/30 12:56:05;;;;;;;4.68;1.52;;;;;;;;;;5049867;28;20131;-73
2024/01/30 12:58:31;;;;;;;5.72;1.58;;;;;;;;;;5048062;28;20052;-73
2024/01/30 13:00:57;;;;;;;3.83;1.30;;;;;;;;;;5050043;28;20066;-73
2024/01/30 13:03:23;;;;;;;5.03;1.90;;;;;;;;;;5046543;28;20444;-73
2024/01/30 13:05:49;;;;;;;4.38;1.70;;;;;;;;;;5050674;28;20048;-73
2024/01/30 13:08:15;;;;;;;2.78;1.38;;;;;;;;;;5049496;28;20491;-73
2024/01/30 13:10:41;;;;;;;2.50;1.65;;;;;;;;;;5049958;28;20115;-73
2024/01/30 13:13:09;;;;;;;5.35;1.70;;;;;;;;;;5050172;28;20041;-73
2024/01/30 13:15:35;;;;;;;5.85;1.70;;;;;;;;;;5050616;28;20129;-73
2024/01/30 13:18:02;;;;;;;10.02;2.00;;;;;;;;;;5049005;28;20119;-73
2024/01/30 13:20:28;;;;;;;8.70;2.20;;;;;;;;;;5050493;28;20064;-73
2024/01/30 13:22:54;;;;;;;5.00;1.65;;;;;;;;;;5049880;28;20091;-73
2024/01/30 13:25:19;;;;;;;8.48;2.05;;;36.20;22.00;;;;;;5049636;28;20040;-73
2024/01/30 13:27:45;;;;;;;6.22;1.67;;;;;;;;;;5049076;28;20036;-73
2024/01/30 13:30:11;;;;;;;3.80;1.80;;;;;;;;;;5047513;28;20508;-73
2024/01/30 13:32:38;;;;;;;5.53;2.05;;;;;;;;;;5044977;28;20544;-73
2024/01/30 13:35:04;;;;;;;4.00;1.70;;;;;;;;;;5046938;28;20048;-73